Time;durP1;ratioP1;P1;durP2;ratioP2;P2;SDS_P1;SDS_P2;PMS_P1;PMS_P2;Temp;Humidity;BMP_temperature;BMP_pressure;BME280_temperature;BME280_humidity;BME280_pressure;Samples;Min_cycle;Max_cycle;Signal;HPM_P1;HPM_P2
2022/04/27 00:01:29;;;;;;;5.13;3.97;;;;;;;12.29;100.00;96933.38;5084539;28;20430;-57
2022/04/27 00:03:56;;;;;;;5.00;3.80;;;;;;;12.51;100.00;96954.59;5084257;28;20048;-57
2022/04/27 00:06:22;;;;;;;3.78;3.42;;;;;;;12.51;100.00;96951.81;5084361;28;20051;-57
2022/04/27 00:08:49;;;;;;;4.32;3.60;;;;;;;12.36;100.00;96958.41;5084356;28;20059;-58
2022/04/27 00:11:16;;;;;;;5.30;3.55;;;;;;;10.37;100.00;96648.19;5084020;28;20048;-58
2022/04/27 00:13:42;;;;;;;4.38;3.55;;;;;;;12.32;100.00;96946.47;5083133;28;20048;-69
2022/04/27 00:16:09;;;;;;;3.55;3.25;;;;;;;12.27;100.00;96946.84;5084006;28;20560;-58
2022/04/27 00:18:36;;;;;;;4.07;3.53;;;;;;;12.24;100.00;96950.38;5084469;28;20812;-57
2022/04/27 00:21:02;;;;;;;4.28;3.75;;;;;;;12.17;100.00;96953.09;5083973;28;20052;-58
2022/04/27 00:23:32;;;;;;;6.90;4.32;;;;;;;12.25;100.00;96943.63;5083590;28;20044;-58
2022/04/27 00:25:59;;;;;;;6.32;4.13;;;;;;;12.17;100.00;96928.13;5083693;28;20563;-58
2022/04/27 00:28:25;;;;;;;7.63;3.95;;;;;;;11.86;100.00;96900.84;5084114;28;20446;-68
2022/04/27 00:30:52;;;;;;;4.28;3.83;;;;;;;11.73;100.00;96863.44;5083961;28;20044;-68
2022/04/27 00:33:18;;;;;;;4.10;3.70;;;;;;;12.01;100.00;96924.78;5083734;28;20418;-69
2022/04/27 00:35:45;;;;;;;5.35;3.28;;;;;;;11.93;100.00;96918.34;5083482;28;20048;-66
2022/04/27 00:38:12;;;;;;;5.13;3.17;;;;;;;11.80;100.00;96907.91;5082254;28;20052;-57
2022/04/27 00:40:39;;;;;;;6.80;3.50;;;;;;;11.75;100.00;96889.66;5083844;28;20056;-59
2022/04/27 00:43:05;;;;;;;4.72;3.60;;;;;;;11.91;100.00;96931.84;5083795;28;20052;-58
2022/04/27 00:45:32;;;;;;;4.40;3.50;;;;;;;11.78;100.00;96933.28;5084059;28;20109;-59
2022/04/27 00:47:59;;;;;;;5.68;3.95;;;;;;;11.79;100.00;96934.09;5060646;28;20507;-57
2022/04/27 00:50:26;;;;;;;5.10;4.03;;;;;;;11.94;100.00;96944.13;5082432;28;20055;-69
2022/04/27 00:52:54;;;;;;;7.93;3.53;;;;;;;11.78;100.00;96940.81;5083586;28;20055;-57
2022/04/27 00:55:21;;;;;;;3.95;3.53;;;;;;;11.65;100.00;96933.94;5083658;28;20056;-58
2022/04/27 00:57:47;;;;;;;4.93;3.67;;;;;;;11.57;100.00;96923.91;5085002;28;20063;-57
2022/04/27 01:00:15;;;;;;;6.32;4.05;;;;;;;11.54;100.00;96910.81;5088435;28;20051;-68
2022/04/27 01:02:42;;;;;;;4.50;4.00;;;;;;;11.60;100.00;96948.13;5087623;28;20047;-58
2022/04/27 01:05:11;;;;;;;6.10;5.22;;;;;;;11.65;100.00;96929.16;5088039;28;20589;-68
2022/04/27 01:07:39;;;;;;;5.38;4.53;;;;;;;11.64;100.00;96932.31;5087624;28;20048;-58
2022/04/27 01:10:08;;;;;;;4.40;4.00;;;;;;;11.71;100.00;96927.66;5085743;28;20063;-68
2022/04/27 01:12:36;;;;;;;5.03;4.55;;;;;;;11.56;100.00;96908.41;5087708;28;20056;-59
2022/04/27 01:15:03;;;;;;;5.43;4.20;;;;;;;11.41;100.00;96892.81;5086274;28;20056;-69
2022/04/27 01:17:30;;;;;;;5.30;4.30;;;;;;;11.61;100.00;96921.97;5087223;28;20043;-58
2022/04/27 01:19:57;;;;;;;5.15;4.15;;;;;;;11.36;100.00;96868.19;5087363;28;20055;-59
2022/04/27 01:22:23;;;;;;;6.00;4.78;;;;;;;11.25;100.00;96848.69;5087388;28;20044;-68
2022/04/27 01:24:50;;;;;;;6.50;4.50;;;;;;;11.63;100.00;96914.09;5085852;28;20056;-69
2022/04/27 01:27:17;;;;;;;6.75;3.75;;;;;;;11.14;100.00;96844.19;5087336;28;20044;-69
2022/04/27 01:29:43;;;;;;;4.15;3.72;;;;;;;11.48;100.00;96915.88;5085777;28;20221;-68
2022/04/27 01:32:10;;;;;;;4.90;3.40;;;;;;;11.52;100.00;96907.59;5086998;28;20506;-69
2022/04/27 01:34:37;;;;;;;7.32;3.67;;;;;;;11.50;100.00;96907.19;5086871;28;20052;-58
2022/04/27 01:39:49;;;;;;;4.90;3.30;;;;;;;11.48;100.00;96912.28;5087155;28;20051;-59
2022/04/27 01:42:16;;;;;;;5.30;3.50;;;;;;;11.40;100.00;96905.88;5085943;28;20082;-68
2022/04/27 01:44:43;;;;;;;3.42;3.08;;;;;;;11.27;100.00;96906.53;5087294;28;20078;-66
2022/04/27 01:47:10;;;;;;;4.68;3.50;;;;;;;11.32;100.00;96903.38;5085857;28;20051;-58
2022/04/27 01:49:37;;;;;;;5.28;3.22;;;;;;;11.29;100.00;96904.16;5087037;28;20491;-57
2022/04/27 01:54:49;;;;;;;4.85;3.33;;;;;;;11.23;100.00;96906.47;5066718;28;20052;-58
2022/04/27 01:57:16;;;;;;;4.78;3.28;;;;;;;11.20;100.00;96906.41;5066532;28;20068;-68
2022/04/27 01:59:42;;;;;;;4.43;3.22;;;;;;;11.15;100.00;96909.53;5066567;28;20053;-58
2022/04/27 02:02:10;;;;;;;5.28;3.15;;;;;;;11.01;100.00;96898.25;5064893;28;20434;-60
2022/04/27 02:04:39;;;;;;;3.58;3.13;;;;;;;11.01;100.00;96892.72;5066709;28;20168;-69
2022/04/27 02:07:08;;;;;;;5.63;3.65;;;;;;;10.69;100.00;96853.50;5066043;28;20052;-58
2022/04/27 02:09:35;;;;;;;5.93;4.18;;;;;;;11.00;100.00;96902.22;5065868;28;20118;-59
2022/04/27 02:12:04;;;;;;;5.22;4.72;;;;;;;10.99;100.00;96889.50;5065028;28;20067;-70
2022/04/27 02:14:30;;;;;;;12.20;7.57;;;;;;;10.65;100.00;96874.84;5066369;28;20059;-59
2022/04/27 02:16:57;;;;;;;11.88;7.75;;;;;;;10.73;100.00;96910.56;5065925;28;20053;-69
2022/04/27 02:19:24;;;;;;;9.18;6.78;;;;;;;10.66;100.00;96898.59;5065937;28;20129;-69
2022/04/27 02:21:50;;;;;;;5.40;4.90;;;;;;;10.64;100.00;96893.41;5066060;28;20362;-69
2022/04/27 02:24:17;;;;;;;5.22;4.72;;;;;;;10.28;100.00;96826.81;5066103;28;20055;-68
2022/04/27 02:26:44;;;;;;;8.88;6.45;;;;;;;10.01;100.00;96801.09;5065502;28;20434;-69
2022/04/27 02:29:11;;;;;;;8.75;7.38;;;;;;;10.64;100.00;96907.28;5066042;28;20060;-59
2022/04/27 02:31:38;;;;;;;5.93;4.70;;;;;;;10.60;100.00;96889.81;5065703;28;20064;-69
2022/04/27 02:34:04;;;;;;;4.45;3.65;;;;;;;10.61;100.00;96891.41;5064298;28;20460;-59
2022/04/27 02:36:32;;;;;;;5.32;3.28;;;;;;;8.95;100.00;96631.94;5065709;28;20110;-69
2022/04/27 02:38:59;;;;;;;3.75;3.20;;;;;;;10.59;100.00;96902.03;5066063;28;20431;-67
2022/04/27 02:41:26;;;;;;;8.43;6.13;;;;;;;10.55;100.00;96955.78;5064369;28;20569;-68
2022/04/27 02:43:54;;;;;;;5.20;4.13;;;;;;;10.52;100.00;96901.16;5065717;28;20054;-58
2022/04/27 02:46:21;;;;;;;10.15;8.15;;;;;;;10.23;100.00;96850.09;5065451;28;20083;-66
2022/04/27 02:54:20;;;;;;;11.00;8.00;;;;;;;10.48;100.00;96894.75;5082575;28;20079;-58
2022/04/27 02:56:47;;;;;;;11.13;8.48;;;;;;;10.47;100.00;96893.97;5085198;28;20048;-58
2022/04/27 02:59:15;;;;;;;9.02;6.45;;;;;;;9.99;100.00;96864.31;5085533;28;20405;-68
2022/04/27 03:01:42;;;;;;;14.60;8.30;;;;;;;10.01;100.00;96816.88;5085557;28;20539;-68
2022/04/27 03:04:09;;;;;;;17.40;11.20;;;;;;;10.63;100.00;96905.69;5085757;28;20050;-68
2022/04/27 03:06:36;;;;;;;13.00;9.75;;;;;;;10.18;100.00;96905.75;5085685;28;20125;-68
2022/04/27 03:09:03;;;;;;;9.98;8.35;;;;;;;9.91;100.00;96862.59;5083851;28;20048;-66
2022/04/27 03:11:30;;;;;;;9.98;8.02;;;;;;;10.24;100.00;96904.28;5085103;28;20542;-69
2022/04/27 03:13:57;;;;;;;8.60;7.70;;;;;;;10.23;100.00;96911.00;5085500;28;20090;-58
2022/04/27 03:16:23;;;;;;;12.68;7.97;;;;;;;10.31;100.00;96909.94;5083656;28;20055;-58
2022/04/27 03:18:50;;;;;;;19.10;9.90;;;;;;;10.28;100.00;96910.69;5085245;28;20131;-60
2022/04/27 03:21:17;;;;;;;20.65;11.20;;;;;;;9.63;100.00;96798.50;5085145;28;20768;-69
2022/04/27 03:23:44;;;;;;;13.65;7.35;;;;;;;10.25;100.00;96914.19;5084956;28;20047;-68
2022/04/27 03:26:11;;;;;;;12.25;8.30;;;;;;;10.20;100.00;96920.03;5084876;28;20052;-68
2022/04/27 03:28:38;;;;;;;9.68;7.30;;;;;;;9.91;100.00;96870.88;5083724;28;20067;-61
2022/04/27 03:31:04;;;;;;;10.32;7.13;;;;;;;9.50;100.00;96823.97;5084818;28;20511;-69
2022/04/27 03:33:31;;;;;;;9.95;6.70;;;;;;;10.06;100.00;96914.25;5084868;28;20048;-68
2022/04/27 03:35:58;;;;;;;7.97;6.80;;;;;;;10.22;100.00;96912.16;5084820;28;20062;-58
2022/04/27 03:38:24;;;;;;;7.05;6.07;;;;;;;10.10;100.00;96915.13;5084737;28;20470;-69
2022/04/27 03:40:51;;;;;;;10.15;4.95;;;;;;;10.23;100.00;96930.38;5085183;28;20052;-58
2022/04/27 03:43:18;;;;;;;6.38;4.95;;;;;;;10.31;100.00;96921.00;5085011;28;20121;-68
2022/04/27 03:45:45;;;;;;;6.50;4.85;;;;;;;9.62;100.00;96816.28;5084220;28;20584;-67
2022/04/27 03:48:11;;;;;;;10.32;5.13;;;;;;;10.27;100.00;96931.25;5084580;28;20055;-57
2022/04/27 03:50:38;;;;;;;7.13;5.65;;;;;;;9.90;100.00;96862.97;5083541;28;20044;-57
2022/04/27 03:53:05;;;;;;;8.25;5.43;;;;;;;8.17;100.00;96582.03;5082856;28;20066;-58
2022/04/27 03:55:33;;;;;;;7.72;5.40;;;;;;;10.29;100.00;96920.56;5084224;28;20064;-58
2022/04/27 03:58:02;;;;;;;6.75;5.30;;;;;;;10.42;100.00;96932.25;5082992;28;20076;-68
2022/04/27 04:00:28;;;;;;;14.55;8.30;;;;;;;10.51;100.00;96936.34;5084440;28;20056;-67
2022/04/27 04:02:58;;;;;;;23.02;12.52;;;;;;;10.10;100.00;96878.34;5084362;28;20499;-67
2022/04/27 04:05:25;;;;;;;15.85;9.52;;;;;;;10.23;100.00;96897.16;5084062;28;20059;-68
2022/04/27 04:07:52;;;;;;;12.75;7.97;;;;;;;9.98;100.00;96851.66;5082924;28;20489;-57
2022/04/27 04:10:19;;;;;;;7.25;5.05;;;;;;;10.54;100.00;96940.34;5084002;28;20059;-67
2022/04/27 04:12:45;;;;;;;6.50;5.18;;;;;;;10.65;100.00;96939.31;5084429;28;20048;-57
2022/04/27 04:15:13;;;;;;;5.78;5.00;;;;;;;10.82;100.00;96939.97;5084164;28;20085;-59
2022/04/27 04:17:46;;;;;;;7.55;4.30;;;;;;;10.88;100.00;96941.22;5082738;28;20051;-57
2022/04/27 04:20:14;;;;;;;9.77;4.73;;;;;;;11.07;100.00;96941.09;5082692;28;20510;-58
2022/04/27 04:22:41;;;;;;;11.45;6.43;;;;;;;11.14;100.00;96953.09;5084458;28;20055;-68
2022/04/27 04:30:39;;;;;;;7.63;3.97;;;;;;;11.12;100.00;96910.28;5084439;28;20052;-63
2022/04/27 04:33:06;;;;;;;4.38;3.90;;;;;;;11.38;100.00;96930.41;5083099;28;20079;-58
2022/04/27 04:35:35;;;;;;;4.30;3.83;;;;;;;11.65;100.00;96953.38;5083903;28;20051;-57
2022/04/27 04:38:04;;;;;;;6.50;4.93;;;;;;;11.85;100.00;96954.75;5081617;28;20063;-57
2022/04/27 04:40:31;;;;;;;10.30;5.72;;;;;;;11.90;100.00;96946.09;5082875;28;20106;-69
2022/04/27 04:42:58;;;;;;;9.57;5.82;;;;;;;12.10;100.00;96962.16;5084066;28;20153;-57
2022/04/27 04:45:25;;;;;;;5.32;4.82;;;;;;;12.24;100.00;96964.25;5083827;28;20472;-69
2022/04/27 04:47:52;;;;;;;7.10;5.18;;;;;;;12.17;100.00;96939.22;5073513;28;20044;-68
2022/04/27 04:50:20;;;;;;;7.90;5.15;;;;;;;12.47;100.00;96953.75;5097243;28;20048;-68
2022/04/27 04:52:47;;;;;;;7.88;5.07;;;;;;;12.60;100.00;96957.81;5081927;28;20233;-67
2022/04/27 04:55:14;;;;;;;7.93;4.47;;;;;;;12.90;100.00;96969.56;5083441;28;20059;-68
2022/04/27 04:57:41;;;;;;;7.07;4.95;;;;;;;12.63;100.00;96918.13;5083857;28;20494;-58
2022/04/27 05:00:09;;;;;;;5.53;4.97;;;;;;;12.50;100.00;96880.75;5082070;28;20060;-67
2022/04/27 05:02:36;;;;;;;6.30;4.85;;;;;;;13.25;100.00;96967.03;5083454;28;20054;-59
2022/04/27 05:05:05;;;;;;;8.25;4.63;;;;;;;13.25;98.23;96969.81;5082139;28;20545;-68
2022/04/27 05:07:34;;;;;;;9.32;5.10;;;;;;;13.41;98.22;96964.72;5083746;28;20476;-58
2022/04/27 05:10:01;;;;;;;7.55;5.35;;;;;;;13.23;98.65;96927.66;5084009;28;20052;-61
2022/04/27 05:12:28;;;;;;;5.90;4.40;;;;;;;13.66;97.11;96968.41;5083782;28;20056;-58
2022/04/27 05:14:55;;;;;;;5.90;4.40;;;;;;;13.55;96.20;96975.91;5083486;28;20052;-69
2022/04/27 05:17:24;;;;;;;4.47;4.07;;;;;;;13.66;96.71;96965.63;5083454;28;20537;-68
2022/04/27 05:19:52;;;;;;;6.10;3.67;;;;;;;13.78;94.49;96966.44;5082126;28;20056;-61
2022/04/27 05:22:19;;;;;;;4.00;3.58;;;;;;;13.61;96.12;96970.75;5082306;28;20063;-58
2022/04/27 05:24:46;;;;;;;5.47;4.03;;;;;;;13.29;97.71;96928.88;5083817;28;20056;-58
2022/04/27 05:27:13;;;;;;;9.48;4.32;;;;;;;13.26;99.44;96974.16;5083281;28;20071;-67
2022/04/27 05:32:27;;;;;;;6.60;4.22;;;;;;;12.81;100.00;96984.97;5080968;28;20044;-59
2022/04/27 05:34:54;;;;;;;5.45;4.15;;;;;;;12.78;100.00;96967.09;5065001;28;20048;-57
2022/04/27 05:37:21;;;;;;;5.22;4.55;;;;;;;13.35;100.00;96982.97;5069696;28;20049;-65
2022/04/27 05:39:47;;;;;;;6.22;4.20;;;;;;;13.20;100.00;96967.38;5074293;28;20052;-66
2022/04/27 05:42:14;;;;;;;7.03;3.72;;;;;;;13.30;100.00;96947.19;5071537;28;20055;-65
2022/04/27 05:44:41;;;;;;;5.13;3.75;;;;;;;13.88;100.00;96993.53;5071006;28;20049;-57
2022/04/27 05:47:07;;;;;;;5.78;3.63;;;;;;;13.08;100.00;96917.66;5076210;28;20122;-61
2022/04/27 05:49:34;;;;;;;5.90;3.42;;;;;;;13.42;100.00;96994.13;5074475;28;20064;-67
2022/04/27 05:52:01;;;;;;;5.28;3.83;;;;;;;13.58;100.00;96986.25;5077727;28;20048;-69
2022/04/27 05:54:27;;;;;;;7.72;4.05;;;;;;;14.05;100.00;96988.03;5074986;28;20070;-72
2022/04/27 05:56:54;;;;;;;9.73;4.40;;;;;;;14.03;100.00;96989.59;5074210;28;20523;-65
2022/04/27 05:59:21;;;;;;;7.55;4.05;;;;;;;14.04;98.31;97002.31;5076489;28;20141;-64
2022/04/27 06:01:47;;;;;;;4.57;3.60;;;;;;;13.93;95.84;96979.22;5074982;28;20054;-67
2022/04/27 06:04:20;;;;;;;9.87;4.27;;;;;;;14.25;95.80;96992.06;5080759;28;20510;-57
2022/04/27 06:06:47;;;;;;;5.35;3.25;;;;;;;14.69;93.33;96994.50;5076295;28;20044;-56
2022/04/27 06:09:13;;;;;;;6.43;3.42;;;;;;;15.08;90.25;97000.84;5074555;28;20048;-57
2022/04/27 06:11:40;;;;;;;4.95;3.65;;;;;;;15.18;86.86;96988.88;5073052;28;20510;-65
2022/04/27 06:14:07;;;;;;;5.70;3.97;;;;;;;15.44;86.93;96999.63;5079214;28;20076;-68
2022/04/27 06:16:34;;;;;;;6.53;3.55;;;;;;;15.65;84.52;97002.34;5072590;28;20056;-66
2022/04/27 06:19:02;;;;;;;4.95;4.15;;;;;;;15.90;81.91;97008.63;5075976;28;20064;-56
2022/04/27 06:21:33;;;;;;;4.53;3.90;;;;;;;15.99;81.20;97011.78;5068731;28;20052;-69
2022/04/27 06:24:00;;;;;;;5.10;4.60;;;;;;;16.11;80.75;97007.72;5076805;28;20609;-61
2022/04/27 06:26:27;;;;;;;5.72;3.83;;;;;;;15.71;80.50;96950.44;5073945;28;20052;-71
2022/04/27 06:28:54;;;;;;;6.50;3.85;;;;;;;16.23;81.23;97010.84;5078480;28;20059;-58
2022/04/27 06:31:21;;;;;;;7.70;3.80;;;;;;;15.54;85.55;96984.81;5066779;28;20049;-69
2022/04/27 06:33:48;;;;;;;4.25;3.78;;;;;;;16.06;83.89;97020.13;5065450;28;20044;-56
2022/04/27 06:36:15;;;;;;;9.35;4.88;;;;;;;16.15;83.04;97023.28;5075695;28;20051;-66
2022/04/27 06:38:41;;;;;;;13.48;6.63;;;;;;;15.86;80.83;96996.66;5076475;28;20043;-66
2022/04/27 06:41:15;;;;;;;7.93;6.22;;;;;;;16.06;80.04;96961.44;5079793;28;20070;-56
2022/04/27 06:43:41;;;;;;;10.90;6.03;;;;;;;16.52;77.98;97020.69;5079040;28;20126;-71
2022/04/27 06:46:08;;;;;;;10.45;6.68;;;;;;;16.41;75.75;96972.41;5074399;28;20522;-67
2022/04/27 06:48:36;;;;;;;6.10;5.22;;;;;;;16.78;76.72;97035.28;5074980;28;20497;-70
2022/04/27 06:51:04;;;;;;;6.18;3.55;;;;;;;16.87;77.37;97021.63;5077004;28;20086;-68
2022/04/27 06:53:30;;;;;;;5.68;4.40;;;;;;;16.92;76.49;97026.78;5086870;28;20052;-58
2022/04/27 06:56:02;;;;;;;7.07;4.65;;;;;;;17.03;77.43;97007.91;5073431;28;20052;-68
2022/04/27 06:58:29;;;;;;;4.68;4.28;;;;;;;17.17;77.51;97025.38;5072500;28;20062;-56
2022/04/27 07:00:57;;;;;;;5.15;4.75;;;;;;;17.37;75.22;97020.78;5070282;28;20053;-67
2022/04/27 07:03:24;;;;;;;4.90;4.25;;;;;;;17.33;73.54;97028.44;5070846;28;20458;-56
2022/04/27 07:05:51;;;;;;;5.65;4.63;;;;;;;17.23;73.69;97023.72;5081476;28;20506;-56
2022/04/27 07:08:18;;;;;;;4.47;3.90;;;;;;;17.45;72.57;97024.34;5084650;28;20086;-59
2022/04/27 07:10:45;;;;;;;3.58;3.28;;;;;;;17.70;72.74;97024.88;5072731;28;20059;-55
2022/04/27 07:13:11;;;;;;;3.63;3.33;;;;;;;17.45;70.80;96980.31;5075353;28;20044;-57
2022/04/27 07:15:38;;;;;;;4.93;3.47;;;;;;;17.91;71.63;97031.03;5072156;28;20449;-69
2022/04/27 07:18:05;;;;;;;4.55;3.53;;;;;;;18.03;71.90;97026.88;5075078;28;20066;-57
2022/04/27 07:20:32;;;;;;;4.28;3.42;;;;;;;18.00;70.71;97006.06;5072812;28;20056;-60
2022/04/27 07:22:58;;;;;;;3.72;3.20;;;;;;;18.13;69.92;97031.53;5074416;28;20622;-66
2022/04/27 07:25:25;;;;;;;2.95;2.72;;;;;;;16.98;68.51;96832.03;5071239;28;20310;-57
2022/04/27 07:27:52;;;;;;;3.40;2.90;;;;;;;17.68;68.29;97060.91;5076308;28;20059;-63
2022/04/27 07:30:20;;;;;;;4.25;3.38;;;;;;;18.20;68.01;97025.84;5080881;28;20044;-65
2022/04/27 07:32:47;;;;;;;3.42;3.10;;;;;;;17.67;74.13;97031.31;5072788;28;20203;-56
2022/04/27 07:35:14;;;;;;;5.30;3.30;;;;;;;17.54;70.22;96971.44;5071939;28;20044;-69
2022/04/27 07:37:40;;;;;;;3.90;3.50;;;;;;;17.85;73.89;97031.91;5076500;28;20060;-62
2022/04/27 07:40:10;;;;;;;4.03;3.58;;;;;;;18.32;72.50;97033.69;5072392;28;20044;-64
2022/04/27 07:42:37;;;;;;;6.10;3.40;;;;;;;18.00;69.78;97036.13;5070736;28;20122;-64
2022/04/27 07:45:05;;;;;;;5.80;3.45;;;;;;;18.28;70.85;97035.78;5076019;28;20047;-56
2022/04/27 07:47:40;;;;;;;5.18;3.80;;;;;;;18.49;70.49;97027.09;5071665;28;20052;-65
2022/04/27 07:50:08;;;;;;;3.55;3.25;;;;;;;18.72;69.93;97024.34;5070154;28;20045;-56
2022/04/27 07:52:35;;;;;;;6.72;3.65;;;;;;;19.15;72.52;97019.66;5072344;28;20056;-66
2022/04/27 07:55:03;;;;;;;4.32;3.97;;;;;;;19.18;68.58;97024.41;5079404;28;20048;-64
2022/04/27 07:57:31;;;;;;;3.28;3.03;;;;;;;18.12;67.91;96957.06;5083063;28;20074;-70
2022/04/27 07:59:59;;;;;;;4.40;3.10;;;;;;;17.63;65.52;96924.09;5070436;28;20063;-66
2022/04/27 08:02:26;;;;;;;3.40;3.15;;;;;;;18.79;64.67;97024.25;5073436;28;20052;-66
2022/04/27 08:04:53;;;;;;;3.47;3.10;;;;;;;18.79;63.85;96939.25;5072993;28;20098;-70
2022/04/27 08:07:20;;;;;;;4.00;2.90;;;;;;;18.98;58.50;97020.75;5070382;28;20426;-59
2022/04/27 08:09:46;;;;;;;2.80;2.60;;;;;;;19.32;58.33;97020.56;5074875;28;20430;-55
2022/04/27 08:12:13;;;;;;;4.07;3.05;;;;;;;18.80;58.22;96991.34;5067204;28;20044;-56
2022/04/27 08:14:40;;;;;;;2.60;2.50;;;;;;;18.77;56.70;97015.44;5078614;28;20052;-66
2022/04/27 08:17:07;;;;;;;6.10;4.20;;;;;;;19.07;60.43;97012.56;5073602;28;20257;-71
2022/04/27 08:19:33;;;;;;;2.58;2.47;;;;;;;18.79;56.20;96953.28;5076761;28;20493;-56
2022/04/27 08:22:02;;;;;;;5.40;2.67;;;;;;;19.23;57.13;97015.50;5075478;28;20044;-66
2022/04/27 08:24:29;;;;;;;3.25;2.80;;;;;;;19.30;63.21;97015.38;5072202;28;20063;-58
2022/04/27 08:26:56;;;;;;;4.43;3.50;;;;;;;19.44;65.26;96964.56;5077257;28;20433;-57
2022/04/27 08:29:23;;;;;;;4.85;4.00;;;;;;;20.03;66.23;97005.97;5065507;28;20698;-57
2022/04/27 08:31:49;;;;;;;3.60;3.30;;;;;;;18.77;65.18;96760.06;5070935;28;20055;-68
2022/04/27 08:34:16;;;;;;;3.53;3.17;;;;;;;19.99;61.45;96920.88;5073782;28;20054;-75
2022/04/27 08:36:43;;;;;;;4.22;3.80;;;;;;;20.61;62.73;96974.94;5070098;28;20068;-57
2022/04/27 08:39:10;;;;;;;7.57;4.00;;;;;;;20.50;64.68;96993.31;5075908;28;20048;-70
2022/04/27 08:41:38;;;;;;;3.63;3.33;;;;;;;20.65;65.02;96995.38;5066964;28;20921;-58
2022/04/27 08:44:07;;;;;;;4.50;3.35;;;;;;;19.86;64.65;96956.50;5066974;28;20457;-66
2022/04/27 08:46:35;;;;;;;4.20;3.90;;;;;;;20.33;66.42;96997.31;5071268;28;20148;-71
2022/04/27 08:49:02;;;;;;;4.22;3.83;;;;;;;20.25;65.10;96914.31;5067420;28;20056;-57
2022/04/27 08:51:30;;;;;;;5.85;3.83;;;;;;;20.11;61.93;96982.06;5075247;28;20067;-57
2022/04/27 08:53:57;;;;;;;4.20;3.80;;;;;;;20.30;61.82;96958.78;5072610;28;20041;-58
2022/04/27 08:56:25;;;;;;;4.22;3.90;;;;;;;20.24;62.59;96989.47;5067717;28;20056;-65
2022/04/27 08:58:51;;;;;;;8.02;3.85;;;;;;;20.70;61.02;96983.59;5067385;28;20060;-57
2022/04/27 09:01:18;;;;;;;4.82;4.32;;;;;;;20.51;61.08;96916.09;5073898;28;20545;-64
2022/04/27 09:03:46;;;;;;;4.97;4.07;;;;;;;20.20;59.81;96931.69;5069157;28;20078;-59
2022/04/27 09:06:15;;;;;;;4.93;3.70;;;;;;;20.38;59.43;96929.25;5072020;28;20429;-57
2022/04/27 09:08:49;;;;;;;5.65;3.65;;;;;;;20.98;59.27;96976.50;5070318;28;20059;-67
2022/04/27 09:11:26;;;;;;;4.63;4.20;;;;;;;20.32;60.15;96894.44;5072355;28;20052;-69
2022/04/27 09:13:55;;;;;;;7.15;3.85;;;;;;;20.82;58.93;96974.44;5082040;28;20577;-57
2022/04/27 09:16:24;;;;;;;5.75;3.58;;;;;;;20.71;59.30;96928.06;5083384;28;20056;-56
2022/04/27 09:21:56;;;;;;;3.60;3.35;;;;;;;21.31;57.75;96972.41;5086753;28;20075;-57
2022/04/27 09:24:23;;;;;;;3.88;3.58;;;;;;;20.94;57.35;96975.78;5080620;28;20044;-65
2022/04/27 09:27:03;;;;;;;5.32;3.78;;;;;;;21.09;57.24;96959.34;5079774;28;20490;-64
2022/04/27 09:29:30;;;;;;;4.25;3.85;;;;;;;21.52;58.09;96957.78;5084237;28;20059;-64
2022/04/27 09:31:58;;;;;;;4.32;3.55;;;;;;;21.47;57.30;96958.31;5086464;28;20048;-67
2022/04/27 09:34:28;;;;;;;4.07;3.47;;;;;;;21.19;58.04;96933.72;5087094;28;20048;-70
2022/04/27 09:36:59;;;;;;;4.00;3.65;;;;;;;21.51;58.39;96970.28;5078332;28;20152;-66
2022/04/27 09:39:27;;;;;;;4.32;3.92;;;;;;;21.73;56.43;96959.22;5076958;28;20521;-63
2022/04/27 09:42:04;;;;;;;4.18;3.80;;;;;;;21.55;58.25;96956.88;5086588;28;20043;-61
2022/04/27 09:44:32;;;;;;;10.15;3.58;;;;;;;21.68;55.75;96957.72;5078900;28;20048;-66
2022/04/27 09:47:09;;;;;;;3.60;3.33;;;;;;;21.67;55.05;96961.78;5071340;28;20079;-57
2022/04/27 09:49:37;;;;;;;7.53;3.55;;;;;;;21.76;52.23;96952.69;5075211;28;20044;-57
2022/04/27 09:52:05;;;;;;;6.78;3.50;;;;;;;21.73;53.24;96948.72;5075215;28;20461;-65
2022/04/27 09:54:37;;;;;;;4.60;3.53;;;;;;;22.03;55.03;96955.94;5074675;28;20057;-65
2022/04/27 09:57:10;;;;;;;6.00;3.90;;;;;;;21.85;54.89;96842.84;5077411;28;20043;-55
2022/04/27 09:59:37;;;;;;;4.28;3.97;;;;;;;22.49;54.43;96950.47;5068447;28;20064;-63
2022/04/27 10:02:10;;;;;;;4.18;3.88;;;;;;;22.14;51.90;96950.78;5074299;28;20106;-57
2022/04/27 10:04:39;;;;;;;4.93;3.97;;;;;;;22.56;51.30;96945.91;5076702;28;20059;-62
2022/04/27 10:07:07;;;;;;;3.63;3.40;;;;;;;22.09;51.49;96943.66;5069073;28;20555;-57
2022/04/27 10:09:35;;;;;;;4.78;4.20;;;;;;;22.53;52.02;96949.59;5070969;28;20051;-71
2022/04/27 10:12:11;;;;;;;4.80;3.80;;;;;;;22.31;50.79;96944.59;5075307;28;20483;-61
2022/04/27 10:14:39;;;;;;;6.38;4.25;;;;;;;20.83;52.39;96660.66;5070368;28;20052;-57
2022/04/27 10:17:06;;;;;;;6.07;4.35;;;;;;;22.82;51.14;96939.00;5070178;28;20040;-67
2022/04/27 10:19:33;;;;;;;4.97;3.63;;;;;;;22.62;51.77;96941.25;5072202;28;20082;-68
2022/04/27 10:22:02;;;;;;;8.60;4.97;;;;;;;22.53;51.94;96939.09;5079802;28;20048;-56
2022/04/27 10:24:34;;;;;;;6.53;4.40;;;;;;;22.36;52.22;96941.22;5080704;28;20151;-69
2022/04/27 10:27:26;;;;;;;4.55;4.05;;;;;;;21.61;51.93;96912.03;5078950;28;20040;-55
2022/04/27 10:29:59;;;;;;;7.05;5.10;;;;;;;21.85;52.82;96945.19;5072076;28;20051;-53
2022/04/27 10:32:37;;;;;;;7.05;3.65;;;;;;;22.43;51.25;96934.53;5090998;28;20056;-68
2022/04/27 10:35:13;;;;;;;7.40;4.00;;;;;;;22.61;51.96;96934.03;5075011;28;20043;-69
2022/04/27 10:37:59;;;;;;;5.53;4.35;;;;;;;22.21;49.80;96872.34;5076367;28;20512;-57
2022/04/27 10:40:41;;;;;;;9.80;4.47;;;;;;;22.51;50.65;96890.72;5076340;28;20065;-66
2022/04/27 10:43:08;;;;;;;6.45;4.22;;;;;;;23.45;49.47;96925.53;5078011;28;20044;-57
2022/04/27 10:45:36;;;;;;;10.27;4.22;;;;;;;23.44;48.43;96935.28;5075956;28;20051;-57
2022/04/27 10:48:06;;;;;;;7.50;4.10;;;;;;;22.92;49.36;96915.25;5077901;28;20485;-56
2022/04/27 10:50:37;;;;;;;5.93;3.90;;;;;;;23.08;49.57;96923.59;5081723;28;20056;-65
2022/04/27 10:53:22;;;;;;;4.65;3.97;;;;;;;22.67;49.46;96889.88;5076685;28;20055;-70
2022/04/27 10:56:00;;;;;;;5.53;4.45;;;;;;;23.06;51.52;96897.81;5075462;28;20052;-58
2022/04/27 10:58:34;;;;;;;6.32;3.88;;;;;;;22.98;49.91;96910.59;5081151;28;20048;-59
2022/04/27 11:01:05;;;;;;;6.18;4.38;;;;;;;22.72;50.90;96911.88;5078829;28;20056;-57
2022/04/27 11:03:38;;;;;;;3.90;3.50;;;;;;;22.41;50.69;96908.81;5081293;28;20062;-56
2022/04/27 11:06:11;;;;;;;5.03;4.30;;;;;;;22.70;52.24;96908.72;5079387;28;20499;-69
2022/04/27 11:09:02;;;;;;;5.75;4.50;;;;;;;23.56;50.11;96900.50;5078387;28;20067;-57
2022/04/27 11:11:31;;;;;;;7.82;4.47;;;;;;;23.57;46.54;96856.81;5075233;28;20080;-75
2022/04/27 11:14:09;;;;;;;5.32;4.40;;;;;;;24.22;46.99;96902.84;5079915;28;20498;-71
2022/04/27 11:16:47;;;;;;;4.37;3.97;;;;;;;24.69;46.07;96894.91;5076247;28;20075;-57
2022/04/27 11:19:17;;;;;;;4.70;4.30;;;;;;;24.81;44.89;96890.41;5074995;28;20524;-56
2022/04/27 11:21:45;;;;;;;5.38;4.60;;;;;;;24.81;45.11;96890.41;5079788;28;20055;-56
2022/04/27 11:24:14;;;;;;;4.70;4.30;;;;;;;23.72;45.84;96883.34;5078190;28;20048;-57
2022/04/27 11:26:41;;;;;;;7.50;4.25;;;;;;;23.24;47.33;96844.28;5079622;28;20058;-56
2022/04/27 11:29:10;;;;;;;5.65;4.55;;;;;;;24.11;46.26;96888.31;5077082;28;20052;-70
2022/04/27 11:31:37;;;;;;;9.25;4.75;;;;;;;24.18;42.65;96791.00;5075832;28;20624;-55
2022/04/27 11:34:21;;;;;;;8.00;4.65;;;;;;;25.23;41.00;96875.19;5077053;28;20060;-55
2022/04/27 11:36:48;;;;;;;;;;;;;;;25.37;43.02;96868.13;5078163;28;20056;-56
2022/04/27 11:39:21;;;;;;;6.47;4.45;;;;;;;25.00;42.54;96870.13;5074736;28;19924;-58
2022/04/27 11:41:56;;;;;;;7.88;4.45;;;;;;;25.40;41.30;96841.69;5075561;28;20048;-57
2022/04/27 11:44:24;;;;;;;11.07;5.00;;;;;;;25.45;40.38;96860.88;5075912;28;20056;-56
2022/04/27 11:46:51;;;;;;;5.28;4.32;;;;;;;25.25;42.22;96869.84;5076760;28;20048;-70
2022/04/27 11:49:21;;;;;;;5.00;4.55;;;;;;;25.38;41.81;96843.41;5077674;28;20131;-56
2022/04/27 11:51:48;;;;;;;6.03;4.70;;;;;;;25.69;41.96;96852.56;5074396;28;20511;-67
2022/04/27 11:54:29;;;;;;;5.53;4.60;;;;;;;25.34;39.62;96854.13;5074470;28;20044;-70
2022/04/27 11:57:03;;;;;;;5.22;4.68;;;;;;;24.69;41.75;96804.25;5074323;28;20052;-56